Time;durP1;ratioP1;P1;durP2;ratioP2;P2;SDS_P1;SDS_P2;PMS_P1;PMS_P2;Temp;Humidity;BMP_temperature;BMP_pressure;BME280_temperature;BME280_humidity;BME280_pressure;Samples;Min_cycle;Max_cycle;Signal;HPM_P1;HPM_P2
2022/06/23 00:00:07;;;;;;;12.60;5.57;;;;;;;22.89;52.70;94384.88;4215628;28;20524;-52
2022/06/23 00:02:26;;;;;;;11.68;5.78;;;;;;;22.98;52.50;94381.78;4219491;28;20059;-54
2022/06/23 00:04:37;;;;;;;11.18;6.15;;;;;;;23.01;52.39;94387.47;4201335;28;20188;-51
2022/06/23 00:06:47;;;;;;;10.40;5.43;;;;;;;23.03;52.20;94384.56;4207734;28;20719;-49
2022/06/23 00:08:49;;;;;;;11.35;6.03;;;;;;;22.90;52.43;94381.13;4199976;28;20113;-51
2022/06/23 00:10:56;;;;;;;12.77;5.90;;;;;;;22.96;52.54;94381.22;4204216;28;20096;-51
2022/06/23 00:12:58;;;;;;;8.75;6.07;;;;;;;22.88;52.28;94380.56;4209235;28;20064;-51
2022/06/23 00:15:04;;;;;;;15.98;5.80;;;;;;;22.69;52.64;94389.88;4203182;28;20109;-50
2022/06/23 00:17:22;;;;;;;13.00;6.40;;;;;;;22.51;53.36;94382.91;4206917;28;20089;-50
2022/06/23 00:19:24;;;;;;;11.68;6.00;;;;;;;22.24;53.79;94388.84;4207961;28;20073;-50
2022/06/23 00:21:30;;;;;;;11.25;5.75;;;;;;;22.04;54.37;94391.91;4207857;28;20540;-54
2022/06/23 00:23:35;;;;;;;11.40;5.63;;;;;;;22.05;54.72;94390.88;4208723;28;20101;-51
2022/06/23 00:25:46;;;;;;;11.10;5.78;;;;;;;21.83;55.53;94387.22;4196412;28;20043;-55
2022/06/23 00:27:48;;;;;;;10.23;5.80;;;;;;;21.84;55.50;94384.31;4199845;28;20118;-52
2022/06/23 00:29:50;;;;;;;9.02;6.55;;;;;;;21.97;54.89;94383.22;4203196;28;20056;-51
2022/06/23 00:32:02;;;;;;;9.63;5.78;;;;;;;21.97;55.11;94371.75;4208982;28;20078;-48
2022/06/23 00:34:23;;;;;;;12.45;6.43;;;;;;;22.03;54.74;94365.47;4212691;28;20104;-48
2022/06/23 00:36:36;;;;;;;12.40;6.20;;;;;;;22.01;54.49;94356.91;4223561;28;20059;-51
2022/06/23 00:38:39;;;;;;;10.27;6.22;;;;;;;22.12;54.73;94342.69;4223307;28;20043;-53
2022/06/23 00:40:42;;;;;;;13.88;6.10;;;;;;;22.22;54.67;94331.38;4209420;28;20056;-53
2022/06/23 00:43:02;;;;;;;9.02;5.15;;;;;;;22.32;54.58;94315.59;4220160;28;20304;-53
2022/06/23 00:45:09;;;;;;;8.52;5.68;;;;;;;22.41;54.17;94316.84;4205465;28;20068;-52
2022/06/23 00:47:19;;;;;;;8.38;5.80;;;;;;;22.39;53.79;94332.28;4220034;28;20094;-49
2022/06/23 00:49:26;;;;;;;14.10;5.95;;;;;;;22.37;53.63;94358.38;4177762;28;20058;-55
2022/06/23 00:51:50;;;;;;;9.73;6.15;;;;;;;22.23;54.63;94365.88;4216785;28;20109;-53
2022/06/23 00:54:04;;;;;;;11.13;5.93;;;;;;;22.07;54.92;94361.28;4211369;28;20499;-50
2022/06/23 00:56:21;;;;;;;11.30;5.40;;;;;;;22.00;55.00;94361.41;4209215;28;20128;-52
2022/06/23 00:58:40;;;;;;;10.52;6.25;;;;;;;21.92;55.25;94366.31;4205364;28;20053;-51
2022/06/23 01:00:42;;;;;;;13.13;6.15;;;;;;;21.84;55.76;94357.66;4206259;28;20496;-56
2022/06/23 01:02:55;;;;;;;9.73;5.80;;;;;;;21.77;56.13;94357.00;4222377;28;20096;-54
2022/06/23 01:05:01;;;;;;;12.75;6.63;;;;;;;21.85;55.92;94347.78;4209629;28;20059;-54
2022/06/23 01:07:24;;;;;;;12.70;6.22;;;;;;;21.95;55.44;94355.19;4209464;28;20140;-55
2022/06/23 01:09:46;;;;;;;15.50;6.15;;;;;;;22.11;54.99;94357.06;4208790;28;20081;-55
2022/06/23 01:11:53;;;;;;;10.13;5.90;;;;;;;22.23;54.84;94352.53;4191285;28;20045;-56
2022/06/23 01:14:02;;;;;;;8.30;5.70;;;;;;;22.31;54.86;94347.88;4206146;28;20040;-55
2022/06/23 01:16:27;;;;;;;14.27;6.28;;;;;;;22.40;54.71;94349.91;4191034;28;20134;-57
2022/06/23 01:18:47;;;;;;;10.75;6.25;;;;;;;22.49;54.28;94351.09;4191471;28;20421;-56
2022/06/23 01:20:57;;;;;;;12.63;6.28;;;;;;;22.54;54.12;94345.03;4200231;28;20516;-52
2022/06/23 01:23:14;;;;;;;16.00;6.38;;;;;;;22.56;54.24;94336.78;4195509;28;20117;-54
2022/06/23 01:25:34;;;;;;;9.32;6.03;;;;;;;22.59;54.32;94326.44;4201726;28;20130;-52
2022/06/23 01:27:58;;;;;;;9.27;6.13;;;;;;;22.61;53.71;94329.69;4191796;28;20048;-50
2022/06/23 01:30:06;;;;;;;9.95;6.07;;;;;;;22.62;53.83;94331.28;4204708;28;20441;-51
2022/06/23 01:32:26;;;;;;;9.95;5.82;;;;;;;22.66;53.80;94337.75;4206009;28;20105;-50
2022/06/23 01:34:31;;;;;;;10.95;6.20;;;;;;;22.46;54.23;94327.56;4204749;28;20109;-57
2022/06/23 01:36:43;;;;;;;14.32;6.25;;;;;;;22.38;54.27;94330.63;4213081;28;20427;-55
2022/06/23 01:38:54;;;;;;;9.80;6.15;;;;;;;22.25;55.17;94328.28;4207275;28;20056;-57
2022/06/23 01:41:00;;;;;;;10.02;6.50;;;;;;;22.21;55.29;94317.25;4204171;28;20068;-56
2022/06/23 01:43:23;;;;;;;8.75;5.75;;;;;;;22.08;55.37;94321.03;4208427;28;20074;-55
2022/06/23 01:45:25;;;;;;;10.82;6.78;;;;;;;21.79;56.15;94309.56;4208233;28;20056;-56
2022/06/23 01:47:48;;;;;;;11.75;6.53;;;;;;;21.78;56.71;94315.13;4203178;28;20044;-55
2022/06/23 01:49:52;;;;;;;13.73;6.80;;;;;;;21.83;56.54;94313.38;4204467;28;20090;-56
2022/06/23 01:52:01;;;;;;;14.57;6.70;;;;;;;21.84;56.10;94303.53;4212694;28;20052;-56
2022/06/23 01:54:26;;;;;;;14.35;7.00;;;;;;;21.77;56.87;94294.84;4212276;28;20524;-58
2022/06/23 01:56:36;;;;;;;11.85;6.50;;;;;;;21.78;56.87;94297.28;4188379;28;20044;-55
2022/06/23 01:58:53;;;;;;;13.00;6.85;;;;;;;21.79;56.62;94298.09;4202212;28;20508;-56
2022/06/23 02:00:58;;;;;;;12.45;6.93;;;;;;;21.88;56.71;94304.66;4206994;28;20048;-55
2022/06/23 02:03:20;;;;;;;11.02;6.88;;;;;;;21.98;56.82;94298.69;4205567;28;20132;-57
2022/06/23 02:05:35;;;;;;;15.18;7.28;;;;;;;22.08;56.39;94289.00;4203827;28;20041;-56
2022/06/23 02:07:40;;;;;;;13.90;7.28;;;;;;;22.15;56.41;94285.38;4217048;28;20421;-57
2022/06/23 02:09:47;;;;;;;10.95;6.70;;;;;;;22.18;56.21;94288.41;4214436;28;20129;-55
2022/06/23 02:11:51;;;;;;;9.77;6.63;;;;;;;22.22;56.17;94289.56;4196919;28;20645;-57
2022/06/23 02:14:28;;;;;;;;;;;;;;;22.26;56.10;94300.53;4205923;28;20048;-57
2022/06/23 02:16:43;;;;;;;11.05;6.80;;;;;;;22.28;55.96;94298.44;4169978;28;19921;-55
2022/06/23 02:18:44;;;;;;;13.38;6.45;;;;;;;22.32;55.64;94298.78;4193285;28;20127;-56
2022/06/23 02:21:01;;;;;;;15.85;7.25;;;;;;;22.34;55.58;94294.00;4201219;28;20451;-56
2022/06/23 02:23:11;;;;;;;12.40;6.72;;;;;;;22.36;55.43;94289.25;4200860;28;20052;-56
2022/06/23 02:25:23;;;;;;;11.43;7.00;;;;;;;22.37;55.65;94297.00;4208434;28;20052;-56
2022/06/23 02:27:30;;;;;;;11.57;6.82;;;;;;;22.37;55.53;94294.34;4205035;28;20070;-57
2022/06/23 02:29:47;;;;;;;12.45;7.03;;;;;;;22.32;56.18;94296.91;4194192;28;20556;-57
2022/06/23 02:31:57;;;;;;;16.92;7.35;;;;;;;22.31;56.16;94291.84;4192983;28;20161;-57
2022/06/23 02:34:13;;;;;;;11.95;7.15;;;;;;;22.29;56.43;94295.53;4196295;28;20081;-56
2022/06/23 02:36:21;;;;;;;11.82;6.82;;;;;;;22.32;55.99;94298.78;4209901;28;20048;-57
2022/06/23 02:38:50;;;;;;;12.02;7.00;;;;;;;22.33;55.93;94300.38;4210940;28;20436;-58
2022/06/23 02:41:02;;;;;;;11.10;6.55;;;;;;;22.35;56.08;94307.13;4210737;28;20055;-57
2022/06/23 02:43:15;;;;;;;13.95;7.10;;;;;;;22.36;56.27;94305.25;4211317;28;20055;-55
2022/06/23 02:45:22;;;;;;;11.65;7.95;;;;;;;22.26;56.73;94303.22;4197109;28;20090;-57
2022/06/23 02:47:42;;;;;;;13.32;7.53;;;;;;;22.19;56.26;94310.53;4208179;28;20056;-55
2022/06/23 02:49:58;;;;;;;12.82;7.93;;;;;;;22.06;57.11;94307.13;4200544;28;20113;-48
2022/06/23 02:52:16;;;;;;;15.50;7.53;;;;;;;21.86;57.06;94312.09;4211088;28;20420;-55
2022/06/23 02:54:33;;;;;;;12.05;7.13;;;;;;;21.69;57.46;94312.03;4208317;28;20059;-56
2022/06/23 02:56:53;;;;;;;16.58;7.00;;;;;;;21.58;57.64;94316.38;4211109;28;20063;-56
2022/06/23 02:59:02;;;;;;;14.40;6.65;;;;;;;21.45;57.81;94322.78;4196294;28;20052;-56
2022/06/23 03:01:07;;;;;;;19.52;7.50;;;;;;;21.20;58.64;94320.34;4206205;28;20060;-56
2022/06/23 03:03:37;;;;;;;17.77;7.05;;;;;;;21.07;59.36;94331.25;4210634;28;20342;-55
2022/06/23 03:05:40;;;;;;;26.02;6.80;;;;;;;21.04;59.30;94334.41;4183792;28;20058;-56
2022/06/23 03:07:54;;;;;;;16.10;8.63;;;;;;;21.01;59.35;94333.00;4205934;28;20062;-56
2022/06/23 03:10:14;;;;;;;17.55;6.63;;;;;;;20.91;59.71;94327.47;4210221;28;20138;-56
2022/06/23 03:12:25;;;;;;;12.82;7.28;;;;;;;20.92;59.57;94333.59;4199869;28;20205;-57
2022/06/23 03:14:48;;;;;;;13.82;6.88;;;;;;;20.91;59.76;94332.78;4207098;28;20601;-55
2022/06/23 03:16:55;;;;;;;14.18;7.95;;;;;;;20.84;60.35;94340.88;4196098;28;20373;-56
2022/06/23 03:19:12;;;;;;;12.32;8.10;;;;;;;20.69;60.89;94334.38;4197013;28;20140;-56
2022/06/23 03:21:19;;;;;;;15.75;8.10;;;;;;;20.66;60.93;94325.00;4205332;28;20488;-58
2022/06/23 03:23:35;;;;;;;14.77;8.38;;;;;;;20.58;60.84;94326.16;4200582;28;20546;-57
2022/06/23 03:26:13;;;;;;;14.13;8.52;;;;;;;20.49;61.17;94318.72;4202822;28;20582;-57
2022/06/23 03:28:29;;;;;;;12.90;8.20;;;;;;;20.50;61.13;94317.66;4190477;28;20056;-57
2022/06/23 03:30:45;;;;;;;12.32;8.15;;;;;;;20.59;60.99;94313.69;4197117;28;20047;-52
2022/06/23 03:33:01;;;;;;;12.00;7.53;;;;;;;20.80;60.60;94304.28;4201048;28;20048;-54
2022/06/23 03:35:09;;;;;;;15.65;8.27;;;;;;;20.96;59.98;94305.47;4209187;28;20059;-55
2022/06/23 03:37:21;;;;;;;18.40;7.80;;;;;;;21.14;59.31;94304.50;4197534;28;20509;-55
2022/06/23 03:42:11;;;;;;;13.02;7.68;;;;;;;21.45;58.60;94301.47;4212034;28;20089;-57
2022/06/23 03:44:19;;;;;;;12.63;7.50;;;;;;;21.55;57.86;94300.84;4207443;28;20056;-56
2022/06/23 03:46:26;;;;;;;16.35;7.95;;;;;;;21.54;58.04;94296.56;4208502;28;20101;-56
2022/06/23 03:48:33;;;;;;;15.93;7.93;;;;;;;21.47;58.53;94294.03;4210728;28;20058;-58
2022/06/23 03:50:45;;;;;;;10.43;7.80;;;;;;;21.43;58.67;94300.88;4207126;28;20048;-56
2022/06/23 03:53:17;;;;;;;15.70;8.68;;;;;;;21.46;59.01;94302.25;4197128;28;20066;-56
2022/06/23 03:55:28;;;;;;;13.32;7.85;;;;;;;21.58;58.62;94310.22;4212294;28;20093;-55
2022/06/23 03:57:33;;;;;;;16.75;8.05;;;;;;;21.69;57.88;94312.03;4208999;28;20048;-57
2022/06/23 03:59:56;;;;;;;16.08;7.70;;;;;;;21.81;57.09;94318.16;4198964;28;20081;-56
2022/06/23 04:02:17;;;;;;;15.30;7.80;;;;;;;21.95;57.13;94301.84;4217065;28;20059;-54
2022/06/23 04:04:42;;;;;;;12.38;7.78;;;;;;;22.07;56.50;94303.41;4207797;28;20158;-54
2022/06/23 04:06:47;;;;;;;14.38;7.20;;;;;;;22.19;56.42;94305.19;4193358;28;20155;-56
2022/06/23 04:08:55;;;;;;;12.38;7.50;;;;;;;22.31;56.13;94311.31;4201364;28;20052;-55
2022/06/23 04:11:43;;;;;;;17.58;8.40;;;;;;;22.39;55.71;94310.94;4207974;28;20519;-56
2022/06/23 04:13:28;;;;;;;13.68;8.18;;;;;;;22.42;55.60;94314.97;4208863;28;20101;-55
2022/06/23 04:15:34;;;;;;;11.13;7.97;;;;;;;21.89;56.69;94322.28;4208002;28;20044;-57
2022/06/23 04:17:42;;;;;;;18.23;7.90;;;;;;;21.60;57.68;94324.13;4207843;28;20072;-57
2022/06/23 04:19:47;;;;;;;13.35;8.18;;;;;;;21.38;58.35;94326.56;4197911;28;20098;-55
2022/06/23 04:21:57;;;;;;;16.23;8.82;;;;;;;21.45;58.15;94330.78;4195677;28;20044;-54
2022/06/23 04:24:03;;;;;;;15.60;7.13;;;;;;;21.25;58.31;94330.31;4207796;28;20131;-57
2022/06/23 04:26:07;;;;;;;15.98;7.32;;;;;;;20.95;59.37;94341.09;4205932;28;20129;-56
2022/06/23 04:28:28;;;;;;;22.27;8.10;;;;;;;20.85;60.00;94334.50;4206335;28;20259;-55
2022/06/23 04:30:35;;;;;;;16.77;8.07;;;;;;;20.98;60.01;94325.47;4192471;28;20181;-54
2022/06/23 04:32:36;;;;;;;14.85;7.82;;;;;;;21.20;59.38;94308.91;4192769;28;20110;-54
2022/06/23 04:34:47;;;;;;;12.18;8.40;;;;;;;21.47;58.63;94311.88;4200964;28;20048;-54
2022/06/23 04:36:48;;;;;;;13.50;8.10;;;;;;;21.66;57.96;94313.34;4209102;28;20498;-54
2022/06/23 04:39:02;;;;;;;17.63;7.70;;;;;;;21.76;57.16;94318.03;4219828;28;20165;-53
2022/06/23 04:41:15;;;;;;;12.23;7.90;;;;;;;21.94;57.06;94317.06;4208240;28;20051;-56
2022/06/23 04:43:29;;;;;;;14.90;8.45;;;;;;;22.14;56.42;94315.78;4209766;28;20419;-54
2022/06/23 04:45:40;;;;;;;11.93;7.60;;;;;;;22.15;56.67;94304.88;4194488;28;20476;-57
2022/06/23 04:47:42;;;;;;;16.75;7.95;;;;;;;22.19;56.72;94306.00;4196824;28;20054;-55
2022/06/23 04:49:51;;;;;;;10.98;7.72;;;;;;;22.30;56.79;94301.69;4214247;28;20104;-52
2022/06/23 04:52:18;;;;;;;14.25;7.80;;;;;;;22.45;55.84;94301.91;4215170;28;20048;-56
2022/06/23 04:54:23;;;;;;;16.15;8.43;;;;;;;22.59;55.47;94315.78;4193621;28;20089;-55
2022/06/23 04:56:34;;;;;;;14.13;8.05;;;;;;;22.72;55.07;94309.28;4213110;28;20448;-56
2022/06/23 04:58:42;;;;;;;12.90;7.30;;;;;;;22.84;54.53;94307.34;4212746;28;20109;-56
2022/06/23 05:00:48;;;;;;;15.73;8.40;;;;;;;22.94;54.31;94312.00;4188683;28;20101;-59
2022/06/23 05:03:12;;;;;;;15.82;8.52;;;;;;;23.03;53.96;94304.41;4195693;28;20104;-54
2022/06/23 05:05:15;;;;;;;13.93;8.52;;;;;;;23.14;53.82;94298.16;4209618;28;20135;-55
2022/06/23 05:07:26;;;;;;;12.23;7.72;;;;;;;23.24;54.07;94295.63;4202773;28;20055;-53
2022/06/23 05:09:35;;;;;;;14.60;8.18;;;;;;;23.30;54.24;94283.94;4205300;28;20064;-56
2022/06/23 05:11:47;;;;;;;15.60;8.02;;;;;;;23.36;54.06;94292.00;4196669;28;20047;-57
2022/06/23 05:13:52;;;;;;;17.55;8.23;;;;;;;23.48;52.92;94303.41;4205338;28;20044;-56
2022/06/23 05:16:09;;;;;;;16.05;7.93;;;;;;;23.59;52.79;94289.09;4205595;28;20544;-57
2022/06/23 05:18:24;;;;;;;15.02;7.70;;;;;;;23.69;53.21;94301.78;4206180;28;20257;-57
2022/06/23 05:20:56;;;;;;;17.10;9.45;;;;;;;23.75;52.59;94308.81;4202368;28;20048;-57
2022/06/23 05:22:58;;;;;;;19.50;9.65;;;;;;;23.28;54.07;94315.44;4202513;28;20088;-58
2022/06/23 05:25:27;;;;;;;18.05;9.65;;;;;;;22.90;55.07;94310.88;4208661;28;20051;-54
2022/06/23 05:27:31;;;;;;;13.48;9.10;;;;;;;22.71;55.90;94296.97;4206160;28;20051;-55
2022/06/23 05:29:37;;;;;;;17.02;8.95;;;;;;;22.77;56.13;94277.31;4218324;28;20129;-56
2022/06/23 05:31:39;;;;;;;15.15;9.68;;;;;;;22.86;56.05;94273.16;4204492;28;20152;-56
2022/06/23 05:33:47;;;;;;;14.63;9.63;;;;;;;22.92;56.23;94289.28;4208360;28;20048;-57
2022/06/23 05:35:56;;;;;;;18.30;9.85;;;;;;;22.97;55.95;94316.06;4206780;28;20056;-55
2022/06/23 05:38:44;;;;;;;21.63;9.63;;;;;;;22.84;55.98;94322.53;4219174;28;20047;-55
2022/06/23 05:40:49;;;;;;;15.70;9.27;;;;;;;22.74;56.38;94304.53;4207824;28;20204;-55
2022/06/23 05:42:54;;;;;;;20.83;8.68;;;;;;;22.72;56.50;94282.59;4210965;28;20048;-57
2022/06/23 05:45:05;;;;;;;20.33;8.55;;;;;;;22.72;56.50;94292.47;4196867;28;20056;-55
2022/06/23 05:47:11;;;;;;;17.48;9.55;;;;;;;22.55;56.86;94325.31;4202846;28;20044;-57
2022/06/23 05:49:16;;;;;;;15.57;9.70;;;;;;;22.31;58.02;94351.34;4207775;28;20048;-54
2022/06/23 05:51:22;;;;;;;20.05;11.48;;;;;;;21.64;60.14;94405.25;4207102;28;20249;-54
2022/06/23 05:53:41;;;;;;;17.00;10.20;;;;;;;20.76;63.10;94603.97;4204958;28;20110;-56
2022/06/23 05:56:12;;;;;;;18.52;11.13;;;;;;;19.99;66.97;94726.69;4219285;28;20109;-56
2022/06/23 05:58:25;;;;;;;35.95;11.15;;;;;;;18.40;77.20;94695.34;4213951;28;20048;-55
2022/06/23 06:00:31;;;;;;;19.48;10.13;;;;;;;17.14;84.90;94589.38;4210743;28;20264;-53
2022/06/23 06:02:48;;;;;;;19.55;8.95;;;;;;;16.77;88.83;94464.56;4206859;28;20060;-55
2022/06/23 06:04:56;;;;;;;20.23;9.07;;;;;;;16.77;89.42;94512.97;4178557;28;20059;-53
2022/06/23 06:06:58;;;;;;;18.60;9.93;;;;;;;17.08;92.82;94555.78;4215737;28;20058;-55
2022/06/23 06:11:25;;;;;;;21.20;11.82;;;;;;;17.52;91.97;94541.13;4205131;28;20047;-57
2022/06/23 06:13:36;;;;;;;15.68;9.63;;;;;;;17.63;91.82;94550.28;4205988;28;20429;-57
2022/06/23 06:15:40;;;;;;;21.65;10.77;;;;;;;17.76;91.46;94556.34;4205333;28;20060;-53
2022/06/23 06:17:45;;;;;;;20.02;11.88;;;;;;;17.92;91.59;94563.09;4205313;28;20106;-56
2022/06/23 06:19:47;;;;;;;21.75;11.30;;;;;;;18.08;92.08;94551.22;4205587;28;20117;-56
2022/06/23 06:21:52;;;;;;;18.13;12.25;;;;;;;18.19;91.54;94532.00;4199777;28;20105;-56
2022/06/23 06:24:03;;;;;;;23.15;13.52;;;;;;;18.33;91.85;94511.56;4206462;28;20052;-56
2022/06/23 06:26:05;;;;;;;19.23;13.25;;;;;;;18.51;91.89;94481.66;4207903;28;20060;-56
2022/06/23 06:28:12;;;;;;;21.05;12.23;;;;;;;18.69;92.22;94467.69;4208068;28;20055;-56
2022/06/23 06:30:19;;;;;;;18.67;12.32;;;;;;;18.86;92.06;94449.41;4188267;28;20643;-55
2022/06/23 06:32:29;;;;;;;17.27;10.77;;;;;;;18.92;89.99;94447.75;4195765;28;20692;-56
2022/06/23 06:34:53;;;;;;;18.63;10.27;;;;;;;18.97;89.25;94453.19;4201586;28;20135;-55
2022/06/23 06:36:54;;;;;;;17.75;11.20;;;;;;;19.11;89.27;94459.22;4205688;28;20441;-55
2022/06/23 06:39:01;;;;;;;19.52;9.90;;;;;;;19.21;89.11;94454.25;4194406;28;20469;-57
2022/06/23 06:41:03;;;;;;;12.80;7.55;;;;;;;19.28;87.53;94456.84;4208787;28;20766;-56
2022/06/23 06:43:10;;;;;;;15.07;8.60;;;;;;;19.34;86.95;94443.50;4216427;28;20060;-54
2022/06/23 06:45:15;;;;;;;9.68;7.20;;;;;;;19.46;87.34;94446.22;4204819;28;20583;-56
2022/06/23 06:47:23;;;;;;;10.77;7.53;;;;;;;19.53;85.14;94444.31;4208609;28;20052;-56
2022/06/23 06:49:28;;;;;;;13.60;7.03;;;;;;;19.54;83.25;94429.19;4192776;28;20063;-58
2022/06/23 06:51:30;;;;;;;13.35;6.57;;;;;;;19.59;82.84;94435.44;4202201;28;20094;-55
2022/06/23 06:53:38;;;;;;;9.63;5.88;;;;;;;19.55;81.24;94425.47;4202751;28;20056;-56
2022/06/23 06:55:48;;;;;;;10.63;5.60;;;;;;;19.61;82.32;94421.94;4209581;28;20048;-61
2022/06/23 06:57:53;;;;;;;9.57;5.47;;;;;;;19.68;81.93;94437.81;4207611;28;20053;-57
2022/06/23 07:00:07;;;;;;;9.00;5.78;;;;;;;19.73;81.35;94427.38;4209516;28;20060;-56
2022/06/23 07:02:29;;;;;;;9.32;5.10;;;;;;;19.65;76.48;94429.25;4210479;28;20489;-56
2022/06/23 07:04:38;;;;;;;7.90;4.63;;;;;;;19.52;76.18;94440.03;4210212;28;20121;-56
2022/06/23 07:06:44;;;;;;;11.48;5.82;;;;;;;19.32;75.97;94426.97;4209805;28;20121;-54
2022/06/23 07:08:49;;;;;;;14.95;5.28;;;;;;;19.43;79.43;94430.72;4210569;28;20048;-56
2022/06/23 07:10:59;;;;;;;7.85;5.30;;;;;;;19.61;80.73;94436.03;4202041;28;20564;-56
2022/06/23 07:13:16;;;;;;;8.77;5.05;;;;;;;19.58;77.06;94433.03;4194223;28;20625;-56
2022/06/23 07:15:23;;;;;;;9.18;5.70;;;;;;;19.53;75.70;94435.53;4202569;28;20105;-59
2022/06/23 07:17:38;;;;;;;9.32;5.82;;;;;;;19.57;77.04;94442.03;4203437;28;20126;-57
2022/06/23 07:19:58;;;;;;;9.40;5.60;;;;;;;19.80;79.35;94442.19;4204914;28;20436;-56
2022/06/23 07:22:05;;;;;;;10.18;6.30;;;;;;;20.04;80.09;94448.44;4206345;28;20052;-56
2022/06/23 07:24:17;;;;;;;9.43;5.82;;;;;;;20.15;76.99;94456.72;4202393;28;20131;-57
2022/06/23 07:26:45;;;;;;;8.35;5.40;;;;;;;20.11;73.57;94468.81;4205024;28;20044;-57
2022/06/23 07:28:55;;;;;;;16.40;9.93;;;;;;;19.92;74.53;94474.19;4204002;28;20060;-54
2022/06/23 07:31:09;;;;;;;24.45;11.23;;;;;;;19.84;73.83;94469.16;4200806;28;20101;-55
2022/06/23 07:33:41;;;;;;;9.55;7.18;;;;;;;19.98;75.11;94473.28;4208940;28;20044;-55
2022/06/23 07:35:43;;;;;;;15.25;9.07;;;;;;;20.25;75.36;94472.94;4190088;28;20036;-55
2022/06/23 07:37:50;;;;;;;22.17;12.60;;;;;;;20.23;73.90;94475.03;4210599;28;20113;-57
2022/06/23 07:39:58;;;;;;;15.60;9.48;;;;;;;20.24;72.15;94484.63;4196371;28;20048;-56
2022/06/23 07:42:07;;;;;;;12.20;8.25;;;;;;;20.10;73.20;94485.84;4219174;28;20100;-56
2022/06/23 07:44:21;;;;;;;15.23;8.85;;;;;;;20.15;73.13;94493.94;4209519;28;20415;-56
2022/06/23 07:46:23;;;;;;;30.60;13.82;;;;;;;20.13;72.35;94506.66;4208805;28;20048;-55
2022/06/23 07:48:27;;;;;;;23.27;11.15;;;;;;;20.16;72.85;94493.72;4218995;28;20094;-57
2022/06/23 07:50:29;;;;;;;;;;;;;;;20.16;72.80;94495.56;4206701;28;20052;-57
2022/06/23 07:52:31;;;;;;;15.52;8.82;;;;;;;20.16;74.64;94500.91;4217136;28;20500;-55
2022/06/23 07:54:32;;;;;;;18.88;9.52;;;;;;;19.64;75.61;94507.34;4211852;28;20188;-55
2022/06/23 07:56:37;;;;;;;14.65;10.15;;;;;;;19.34;76.53;94511.75;4223827;28;20052;-57
2022/06/23 07:58:42;;;;;;;16.27;10.05;;;;;;;19.40;76.36;94506.38;4210678;28;20060;-56
2022/06/23 08:00:45;;;;;;;14.20;9.50;;;;;;;19.45;74.49;94505.72;4204530;28;20306;-56
2022/06/23 08:02:53;;;;;;;14.03;9.60;;;;;;;19.34;75.33;94501.91;4208727;28;20044;-56
2022/06/23 08:05:20;;;;;;;13.85;9.10;;;;;;;19.81;75.41;94490.84;4207828;28;20047;-55
2022/06/23 08:07:23;;;;;;;13.45;8.23;;;;;;;20.22;70.98;94489.38;4199682;28;20060;-53
2022/06/23 08:09:33;;;;;;;10.07;6.28;;;;;;;20.09;68.27;94516.09;4208880;28;20052;-55
2022/06/23 08:14:28;;;;;;;9.88;5.95;;;;;;;20.11;70.18;94492.75;4207463;28;20057;-56
2022/06/23 08:16:50;;;;;;;8.15;5.45;;;;;;;20.28;68.52;94477.81;4207365;28;20428;-55
2022/06/23 08:19:14;;;;;;;11.18;5.78;;;;;;;20.80;68.54;94472.84;4208714;28;20225;-54
2022/06/23 08:21:19;;;;;;;9.93;5.47;;;;;;;21.05;65.95;94477.16;4209188;28;20048;-56
2022/06/23 08:23:23;;;;;;;11.75;5.70;;;;;;;20.95;65.89;94482.22;4197073;28;20203;-59
2022/06/23 08:25:25;;;;;;;10.07;5.07;;;;;;;20.91;66.50;94486.38;4198155;28;20059;-54
2022/06/23 08:27:30;;;;;;;9.18;5.60;;;;;;;20.99;65.43;94478.06;4210445;28;20513;-55
2022/06/23 08:29:45;;;;;;;10.20;5.63;;;;;;;21.12;65.78;94466.38;4207536;28;20056;-53
2022/06/23 08:31:47;;;;;;;10.48;4.93;;;;;;;21.39;67.54;94467.56;4210224;28;20040;-57
2022/06/23 08:34:05;;;;;;;10.65;5.75;;;;;;;21.21;64.58;94468.50;4199626;28;20080;-57
2022/06/23 08:36:13;;;;;;;9.25;5.22;;;;;;;21.23;64.07;94474.41;4209166;28;20500;-54
2022/06/23 08:38:36;;;;;;;9.55;5.22;;;;;;;21.41;64.40;94470.00;4209273;28;20055;-55
2022/06/23 08:41:03;;;;;;;12.07;6.03;;;;;;;21.40;64.90;94468.38;4195368;28;20060;-55
2022/06/23 08:43:10;;;;;;;10.70;5.35;;;;;;;21.71;65.10;94469.09;4216965;28;20052;-54
2022/06/23 08:45:14;;;;;;;8.98;5.05;;;;;;;21.94;62.97;94463.72;4215281;28;20476;-54
2022/06/23 08:47:18;;;;;;;7.60;5.80;;;;;;;22.08;62.50;94465.06;4210601;28;20085;-56
2022/06/23 08:49:25;;;;;;;8.25;5.30;;;;;;;22.25;62.51;94464.38;4220440;28;20048;-54
2022/06/23 08:52:02;;;;;;;7.57;5.55;;;;;;;22.55;63.55;94460.66;4200773;28;20141;-56
2022/06/23 08:54:12;;;;;;;13.70;6.57;;;;;;;22.83;61.74;94454.47;4205409;28;20391;-54
2022/06/23 08:56:25;;;;;;;9.00;6.15;;;;;;;22.89;59.54;94445.50;4203881;28;20078;-55
2022/06/23 08:58:34;;;;;;;8.82;5.57;;;;;;;22.83;61.02;94444.59;4200943;28;20473;-55
2022/06/23 09:01:02;;;;;;;9.85;6.38;;;;;;;22.97;62.40;94449.59;4207377;28;20108;-56
2022/06/23 09:03:36;;;;;;;9.85;7.03;;;;;;;23.34;63.27;94455.31;4207807;28;20512;-53
2022/06/23 09:05:49;;;;;;;11.30;7.35;;;;;;;23.67;61.94;94453.66;4185059;28;20082;-56
2022/06/23 09:07:51;;;;;;;13.55;6.65;;;;;;;23.57;59.86;94451.63;4219069;28;20143;-56
2022/06/23 09:09:55;;;;;;;13.50;6.95;;;;;;;23.65;61.29;94450.41;4207743;28;20044;-54
2022/06/23 09:12:06;;;;;;;12.88;6.88;;;;;;;23.79;62.07;94440.19;4202176;28;20493;-57
2022/06/23 09:14:20;;;;;;;13.40;7.55;;;;;;;23.89;62.59;94448.34;4201660;28;20397;-55
2022/06/23 09:16:33;;;;;;;12.52;7.15;;;;;;;24.00;61.17;94442.06;4206245;28;20394;-54
2022/06/23 09:18:56;;;;;;;13.25;6.88;;;;;;;24.28;60.81;94438.38;4208724;28;20496;-56
2022/06/23 09:21:05;;;;;;;9.32;7.47;;;;;;;24.49;60.61;94433.28;4207704;28;20125;-57
2022/06/23 09:23:26;;;;;;;15.23;7.70;;;;;;;24.75;60.57;94439.69;4192544;28;20048;-57
2022/06/23 09:25:41;;;;;;;13.20;7.93;;;;;;;24.82;58.67;94436.78;4201964;28;20056;-58
2022/06/23 09:28:02;;;;;;;12.20;7.55;;;;;;;24.89;58.95;94432.84;4208673;28;20101;-57
2022/06/23 09:30:11;;;;;;;17.70;7.78;;;;;;;24.96;58.94;94424.59;4205630;28;20626;-55
2022/06/23 09:32:19;;;;;;;14.38;7.70;;;;;;;25.05;58.66;94424.94;4208630;28;20461;-54
2022/06/23 09:34:39;;;;;;;12.95;8.15;;;;;;;25.17;59.65;94420.22;4208489;28;20146;-54
2022/06/23 09:36:55;;;;;;;13.65;7.95;;;;;;;25.23;57.68;94411.19;4208803;28;20351;-56
2022/06/23 09:39:39;;;;;;;18.33;8.52;;;;;;;25.26;57.01;94417.88;4195342;28;20086;-55
2022/06/23 09:42:05;;;;;;;11.57;7.78;;;;;;;25.17;56.64;94412.16;4171250;28;20075;-57
2022/06/23 09:44:44;;;;;;;14.32;8.27;;;;;;;24.94;56.48;94405.28;4205864;28;20052;-54
2022/06/23 09:47:29;;;;;;;13.32;7.50;;;;;;;24.91;57.96;94411.97;4195709;28;20067;-54
2022/06/23 09:49:35;;;;;;;12.18;7.55;;;;;;;25.01;57.51;94407.75;4196742;28;20044;-54
2022/06/23 09:52:04;;;;;;;12.27;7.40;;;;;;;25.14;58.12;94404.63;4213962;28;20051;-59
2022/06/23 09:54:48;;;;;;;11.82;7.30;;;;;;;25.34;57.08;94412.84;4209500;28;20545;-58
2022/06/23 09:57:11;;;;;;;9.93;7.43;;;;;;;25.43;56.23;94409.69;4189537;28;20048;-58
2022/06/23 09:59:21;;;;;;;10.25;7.50;;;;;;;25.56;57.17;94403.88;4220458;28;20052;-55
2022/06/23 10:01:23;;;;;;;13.50;7.35;;;;;;;25.67;55.82;94410.91;4211584;28;20121;-56
2022/06/23 10:03:49;;;;;;;11.98;7.22;;;;;;;25.72;54.36;94408.22;4217039;28;20055;-54
2022/06/23 10:06:00;;;;;;;14.20;7.30;;;;;;;25.18;55.03;94403.06;4207901;28;20071;-54
2022/06/23 10:08:27;;;;;;;13.48;7.38;;;;;;;24.76;56.54;94403.81;4205216;28;20448;-54
2022/06/23 10:11:03;;;;;;;11.65;7.97;;;;;;;23.93;58.38;94406.66;4200680;28;20188;-57
2022/06/23 10:13:32;;;;;;;15.93;8.52;;;;;;;23.96;58.25;94397.31;4185008;28;20458;-55
2022/06/23 10:15:42;;;;;;;12.63;8.20;;;;;;;23.86;59.21;94406.06;4201359;28;20428;-56
2022/06/23 10:17:53;;;;;;;13.50;8.18;;;;;;;23.73;59.28;94407.19;4207090;28;20113;-54
2022/06/23 10:20:32;;;;;;;13.27;7.63;;;;;;;23.59;59.12;94414.75;4195281;28;20052;-56
2022/06/23 10:22:49;;;;;;;15.50;9.95;;;;;;;23.56;58.83;94401.09;4192036;28;20051;-55
2022/06/23 10:25:18;;;;;;;15.30;9.65;;;;;;;23.54;59.85;94395.97;4199903;28;20051;-57